sensor_id;sensor_type;location;lat;lon;timestamp;temperature;humidity
18337;DHT22;9294;51.106;7.028;2023-04-03T00:02:02;18.00;91.70
18337;DHT22;9294;51.106;7.028;2023-04-03T00:04:29;18.10;91.70
18337;DHT22;9294;51.106;7.028;2023-04-03T00:06:56;18.10;92.10
18337;DHT22;9294;51.106;7.028;2023-04-03T00:09:24;18.10;91.70
18337;DHT22;9294;51.106;7.028;2023-04-03T00:14:19;18.00;91.70
18337;DHT22;9294;51.106;7.028;2023-04-03T00:16:45;18.00;91.80
18337;DHT22;9294;51.106;7.028;2023-04-03T00:19:12;18.00;91.70
18337;DHT22;9294;51.106;7.028;2023-04-03T00:21:39;18.00;91.70
18337;DHT22;9294;51.106;7.028;2023-04-03T00:24:06;18.00;91.80
18337;DHT22;9294;51.106;7.028;2023-04-03T00:26:34;18.00;92.10
18337;DHT22;9294;51.106;7.028;2023-04-03T00:29:01;18.00;91.70
18337;DHT22;9294;51.106;7.028;2023-04-03T00:31:28;18.00;92.00
18337;DHT22;9294;51.106;7.028;2023-04-03T00:33:55;18.00;91.70
18337;DHT22;9294;51.106;7.028;2023-04-03T00:36:21;18.00;91.70
18337;DHT22;9294;51.106;7.028;2023-04-03T00:38:48;18.00;91.70
18337;DHT22;9294;51.106;7.028;2023-04-03T00:41:15;18.00;91.70
18337;DHT22;9294;51.106;7.028;2023-04-03T00:43:43;17.90;91.70
18337;DHT22;9294;51.106;7.028;2023-04-03T00:48:40;17.90;91.70
18337;DHT22;9294;51.106;7.028;2023-04-03T00:51:10;17.90;91.60
18337;DHT22;9294;51.106;7.028;2023-04-03T00:53:41;18.00;91.70
18337;DHT22;9294;51.106;7.028;2023-04-03T00:56:11;17.90;91.70
18337;DHT22;9294;51.106;7.028;2023-04-03T00:58:43;17.90;91.60
18337;DHT22;9294;51.106;7.028;2023-04-03T01:01:14;17.90;91.60
18337;DHT22;9294;51.106;7.028;2023-04-03T01:03:42;17.90;91.60
18337;DHT22;9294;51.106;7.028;2023-04-03T01:06:09;17.90;91.50
18337;DHT22;9294;51.106;7.028;2023-04-03T01:08:36;17.80;91.50
18337;DHT22;9294;51.106;7.028;2023-04-03T01:11:02;17.90;91.60
18337;DHT22;9294;51.106;7.028;2023-04-03T01:13:31;17.90;91.60
18337;DHT22;9294;51.106;7.028;2023-04-03T01:16:02;17.90;91.60
18337;DHT22;9294;51.106;7.028;2023-04-03T01:18:29;17.90;91.60
18337;DHT22;9294;51.106;7.028;2023-04-03T01:21:13;17.90;91.60
18337;DHT22;9294;51.106;7.028;2023-04-03T01:24:00;17.90;91.60
18337;DHT22;9294;51.106;7.028;2023-04-03T01:26:31;17.90;91.80
18337;DHT22;9294;51.106;7.028;2023-04-03T01:29:00;17.90;91.50
18337;DHT22;9294;51.106;7.028;2023-04-03T01:31:31;17.90;91.60
18337;DHT22;9294;51.106;7.028;2023-04-03T01:34:00;17.90;91.60
18337;DHT22;9294;51.106;7.028;2023-04-03T01:36:29;17.90;91.50
18337;DHT22;9294;51.106;7.028;2023-04-03T01:38:56;17.90;91.50
18337;DHT22;9294;51.106;7.028;2023-04-03T01:41:24;17.80;91.40
18337;DHT22;9294;51.106;7.028;2023-04-03T01:43:51;17.80;91.40
18337;DHT22;9294;51.106;7.028;2023-04-03T01:46:19;17.80;91.40
18337;DHT22;9294;51.106;7.028;2023-04-03T01:48:46;17.80;91.30
18337;DHT22;9294;51.106;7.028;2023-04-03T01:51:14;17.80;91.40
18337;DHT22;9294;51.106;7.028;2023-04-03T01:53:41;17.80;91.30
18337;DHT22;9294;51.106;7.028;2023-04-03T01:56:08;17.80;91.30
18337;DHT22;9294;51.106;7.028;2023-04-03T01:58:35;17.80;91.40
18337;DHT22;9294;51.106;7.028;2023-04-03T02:01:02;17.70;91.30
18337;DHT22;9294;51.106;7.028;2023-04-03T02:03:29;17.80;91.30
18337;DHT22;9294;51.106;7.028;2023-04-03T02:05:56;17.80;91.30
18337;DHT22;9294;51.106;7.028;2023-04-03T02:08:24;17.70;91.30
18337;DHT22;9294;51.106;7.028;2023-04-03T02:10:51;17.80;91.60
18337;DHT22;9294;51.106;7.028;2023-04-03T02:18:13;17.70;91.30
18337;DHT22;9294;51.106;7.028;2023-04-03T02:20:40;17.80;91.30
18337;DHT22;9294;51.106;7.028;2023-04-03T02:23:06;17.70;91.30
18337;DHT22;9294;51.106;7.028;2023-04-03T02:25:34;17.80;91.30
18337;DHT22;9294;51.106;7.028;2023-04-03T02:28:01;17.70;91.30
18337;DHT22;9294;51.106;7.028;2023-04-03T02:30:28;17.70;91.60
18337;DHT22;9294;51.106;7.028;2023-04-03T02:32:55;18.70;91.70
18337;DHT22;9294;51.106;7.028;2023-04-03T02:35:21;17.70;91.30
18337;DHT22;9294;51.106;7.028;2023-04-03T02:37:48;17.70;91.60
18337;DHT22;9294;51.106;7.028;2023-04-03T02:40:15;17.70;91.30
18337;DHT22;9294;51.106;7.028;2023-04-03T02:42:43;17.70;91.30
18337;DHT22;9294;51.106;7.028;2023-04-03T02:45:10;17.70;91.30
18337;DHT22;9294;51.106;7.028;2023-04-03T02:50:05;17.60;91.30
18337;DHT22;9294;51.106;7.028;2023-04-03T02:52:31;17.70;91.30
18337;DHT22;9294;51.106;7.028;2023-04-03T02:54:58;17.70;91.30
18337;DHT22;9294;51.106;7.028;2023-04-03T02:57:25;17.60;91.20
18337;DHT22;9294;51.106;7.028;2023-04-03T02:59:53;17.60;91.20
18337;DHT22;9294;51.106;7.028;2023-04-03T03:02:20;17.70;91.30
18337;DHT22;9294;51.106;7.028;2023-04-03T03:04:46;17.60;91.30
18337;DHT22;9294;51.106;7.028;2023-04-03T03:07:13;17.70;91.30
18337;DHT22;9294;51.106;7.028;2023-04-03T03:09:40;17.70;91.30
18337;DHT22;9294;51.106;7.028;2023-04-03T03:12:06;17.60;91.20
18337;DHT22;9294;51.106;7.028;2023-04-03T03:17:02;17.70;91.30
18337;DHT22;9294;51.106;7.028;2023-04-03T03:19:28;17.60;91.20
18337;DHT22;9294;51.106;7.028;2023-04-03T03:21:55;17.60;91.20
18337;DHT22;9294;51.106;7.028;2023-04-03T03:24:22;17.60;91.20
18337;DHT22;9294;51.106;7.028;2023-04-03T03:26:49;17.60;91.20
18337;DHT22;9294;51.106;7.028;2023-04-03T03:29:15;17.60;91.20
18337;DHT22;9294;51.106;7.028;2023-04-03T03:31:42;17.60;91.20
18337;DHT22;9294;51.106;7.028;2023-04-03T03:34:10;17.60;91.20
18337;DHT22;9294;51.106;7.028;2023-04-03T03:36:37;17.50;91.20
18337;DHT22;9294;51.106;7.028;2023-04-03T03:39:04;17.60;91.30
18337;DHT22;9294;51.106;7.028;2023-04-03T03:41:31;17.60;91.30
18337;DHT22;9294;51.106;7.028;2023-04-03T03:43:57;17.60;91.40
18337;DHT22;9294;51.106;7.028;2023-04-03T03:46:24;17.70;91.50
18337;DHT22;9294;51.106;7.028;2023-04-03T03:48:51;17.80;91.50
18337;DHT22;9294;51.106;7.028;2023-04-03T03:51:19;18.00;90.90
18337;DHT22;9294;51.106;7.028;2023-04-03T03:53:46;18.10;90.60
18337;DHT22;9294;51.106;7.028;2023-04-03T03:56:12;18.10;90.90
18337;DHT22;9294;51.106;7.028;2023-04-03T03:58:39;18.30;89.80
18337;DHT22;9294;51.106;7.028;2023-04-03T04:01:06;18.30;89.50
18337;DHT22;9294;51.106;7.028;2023-04-03T04:03:34;18.40;89.20
18337;DHT22;9294;51.106;7.028;2023-04-03T04:06:00;18.50;88.90
18337;DHT22;9294;51.106;7.028;2023-04-03T04:08:28;18.50;89.50
18337;DHT22;9294;51.106;7.028;2023-04-03T04:10:55;18.60;89.30
18337;DHT22;9294;51.106;7.028;2023-04-03T04:13:22;18.70;89.20
18337;DHT22;9294;51.106;7.028;2023-04-03T04:15:49;18.70;87.60
18337;DHT22;9294;51.106;7.028;2023-04-03T04:18:15;18.80;88.60
18337;DHT22;9294;51.106;7.028;2023-04-03T04:20:45;18.80;88.20
18337;DHT22;9294;51.106;7.028;2023-04-03T04:23:11;18.90;88.00
18337;DHT22;9294;51.106;7.028;2023-04-03T04:25:39;18.90;87.80
18337;DHT22;9294;51.106;7.028;2023-04-03T04:28:06;19.00;87.50
18337;DHT22;9294;51.106;7.028;2023-04-03T04:30:33;19.00;87.10
18337;DHT22;9294;51.106;7.028;2023-04-03T04:33:00;19.10;86.90
18337;DHT22;9294;51.106;7.028;2023-04-03T04:35:26;19.10;85.40
18337;DHT22;9294;51.106;7.028;2023-04-03T04:37:53;19.20;86.50
18337;DHT22;9294;51.106;7.028;2023-04-03T04:40:20;19.20;86.30
18337;DHT22;9294;51.106;7.028;2023-04-03T04:42:48;19.20;86.10
18337;DHT22;9294;51.106;7.028;2023-04-03T04:45:15;19.20;86.00
18337;DHT22;9294;51.106;7.028;2023-04-03T04:47:42;19.30;85.90
18337;DHT22;9294;51.106;7.028;2023-04-03T04:50:09;21.30;87.90
18337;DHT22;9294;51.106;7.028;2023-04-03T04:52:36;19.30;85.70
18337;DHT22;9294;51.106;7.028;2023-04-03T04:55:04;19.20;85.60
18337;DHT22;9294;51.106;7.028;2023-04-03T04:57:31;19.30;85.60
18337;DHT22;9294;51.106;7.028;2023-04-03T04:59:59;19.30;85.70
18337;DHT22;9294;51.106;7.028;2023-04-03T05:02:26;19.30;84.60
18337;DHT22;9294;51.106;7.028;2023-04-03T05:04:53;19.30;85.60
18337;DHT22;9294;51.106;7.028;2023-04-03T05:07:19;19.30;85.40
18337;DHT22;9294;51.106;7.028;2023-04-03T05:09:46;19.30;85.40
18337;DHT22;9294;51.106;7.028;2023-04-03T05:12:13;19.30;85.30
18337;DHT22;9294;51.106;7.028;2023-04-03T05:14:40;19.30;85.30
18337;DHT22;9294;51.106;7.028;2023-04-03T05:17:08;19.20;85.30
18337;DHT22;9294;51.106;7.028;2023-04-03T05:19:34;19.30;85.30
18337;DHT22;9294;51.106;7.028;2023-04-03T05:22:01;19.30;85.30
18337;DHT22;9294;51.106;7.028;2023-04-03T05:24:28;21.20;87.10
18337;DHT22;9294;51.106;7.028;2023-04-03T05:26:55;19.20;85.20
18337;DHT22;9294;51.106;7.028;2023-04-03T05:29:21;19.20;85.20
18337;DHT22;9294;51.106;7.028;2023-04-03T05:31:49;19.20;85.20
18337;DHT22;9294;51.106;7.028;2023-04-03T05:34:17;19.20;85.30
18337;DHT22;9294;51.106;7.028;2023-04-03T05:36:44;19.20;85.30
18337;DHT22;9294;51.106;7.028;2023-04-03T05:39:10;19.20;85.30
18337;DHT22;9294;51.106;7.028;2023-04-03T05:41:37;19.20;85.30
18337;DHT22;9294;51.106;7.028;2023-04-03T05:44:04;19.20;85.30
18337;DHT22;9294;51.106;7.028;2023-04-03T05:46:31;19.20;85.40
18337;DHT22;9294;51.106;7.028;2023-04-03T05:48:58;19.10;84.40
18337;DHT22;9294;51.106;7.028;2023-04-03T05:51:30;19.10;85.40
18337;DHT22;9294;51.106;7.028;2023-04-03T05:54:03;19.10;85.40
18337;DHT22;9294;51.106;7.028;2023-04-03T05:56:31;19.20;85.50
18337;DHT22;9294;51.106;7.028;2023-04-03T05:58:58;19.10;84.50
18337;DHT22;9294;51.106;7.028;2023-04-03T06:01:24;19.10;85.50
18337;DHT22;9294;51.106;7.028;2023-04-03T06:03:51;19.10;86.20
18337;DHT22;9294;51.106;7.028;2023-04-03T06:06:19;19.10;85.50
18337;DHT22;9294;51.106;7.028;2023-04-03T06:08:48;19.10;85.40
18337;DHT22;9294;51.106;7.028;2023-04-03T06:11:15;19.10;85.50
18337;DHT22;9294;51.106;7.028;2023-04-03T06:13:42;19.10;84.60
18337;DHT22;9294;51.106;7.028;2023-04-03T06:16:10;19.10;85.60
18337;DHT22;9294;51.106;7.028;2023-04-03T06:18:39;19.10;85.50
18337;DHT22;9294;51.106;7.028;2023-04-03T06:21:06;19.10;85.50
18337;DHT22;9294;51.106;7.028;2023-04-03T06:23:33;19.10;84.90
18337;DHT22;9294;51.106;7.028;2023-04-03T06:26:01;18.20;84.80
18337;DHT22;9294;51.106;7.028;2023-04-03T06:28:28;20.90;87.60
18337;DHT22;9294;51.106;7.028;2023-04-03T06:30:55;19.10;85.60
18337;DHT22;9294;51.106;7.028;2023-04-03T06:33:21;19.10;85.60
18337;DHT22;9294;51.106;7.028;2023-04-03T06:35:48;19.10;85.70
18337;DHT22;9294;51.106;7.028;2023-04-03T06:38:15;19.10;85.80
18337;DHT22;9294;51.106;7.028;2023-04-03T06:40:44;19.00;84.80
18337;DHT22;9294;51.106;7.028;2023-04-03T06:43:12;19.00;84.60
18337;DHT22;9294;51.106;7.028;2023-04-03T06:45:39;19.00;84.70
18337;DHT22;9294;51.106;7.028;2023-04-03T06:48:06;19.00;85.80
18337;DHT22;9294;51.106;7.028;2023-04-03T06:50:32;19.00;85.80
18337;DHT22;9294;51.106;7.028;2023-04-03T06:52:59;19.00;84.70
18337;DHT22;9294;51.106;7.028;2023-04-03T06:55:26;19.00;85.80
18337;DHT22;9294;51.106;7.028;2023-04-03T06:57:53;19.00;85.70
18337;DHT22;9294;51.106;7.028;2023-04-03T07:00:21;19.00;85.00
18337;DHT22;9294;51.106;7.028;2023-04-03T07:02:48;19.00;85.80
18337;DHT22;9294;51.106;7.028;2023-04-03T07:05:14;19.00;85.80
18337;DHT22;9294;51.106;7.028;2023-04-03T07:07:41;19.00;85.80
18337;DHT22;9294;51.106;7.028;2023-04-03T07:10:08;19.00;85.70
18337;DHT22;9294;51.106;7.028;2023-04-03T07:12:36;19.00;86.40
18337;DHT22;9294;51.106;7.028;2023-04-03T07:15:04;19.00;85.80
18337;DHT22;9294;51.106;7.028;2023-04-03T07:17:32;19.00;84.70
18337;DHT22;9294;51.106;7.028;2023-04-03T07:19:59;19.00;85.70
18337;DHT22;9294;51.106;7.028;2023-04-03T07:22:26;19.00;84.60
18337;DHT22;9294;51.106;7.028;2023-04-03T07:24:52;19.00;85.40
18337;DHT22;9294;51.106;7.028;2023-04-03T07:27:19;19.00;84.60
18337;DHT22;9294;51.106;7.028;2023-04-03T07:29:46;20.10;86.60
18337;DHT22;9294;51.106;7.028;2023-04-03T07:32:14;19.00;85.50
18337;DHT22;9294;51.106;7.028;2023-04-03T07:34:42;19.00;84.70
18337;DHT22;9294;51.106;7.028;2023-04-03T07:37:09;19.00;85.50
18337;DHT22;9294;51.106;7.028;2023-04-03T07:39:35;19.00;85.50
18337;DHT22;9294;51.106;7.028;2023-04-03T07:42:02;19.00;84.50
18337;DHT22;9294;51.106;7.028;2023-04-03T07:44:29;19.00;85.40
18337;DHT22;9294;51.106;7.028;2023-04-03T07:46:56;19.00;84.40
18337;DHT22;9294;51.106;7.028;2023-04-03T07:49:23;19.00;85.30
18337;DHT22;9294;51.106;7.028;2023-04-03T07:51:51;19.00;85.30
18337;DHT22;9294;51.106;7.028;2023-04-03T07:54:18;19.00;85.40
18337;DHT22;9294;51.106;7.028;2023-04-03T07:56:45;19.00;85.50
18337;DHT22;9294;51.106;7.028;2023-04-03T07:59:12;19.00;85.50
18337;DHT22;9294;51.106;7.028;2023-04-03T08:01:38;19.00;85.40
18337;DHT22;9294;51.106;7.028;2023-04-03T08:04:05;19.00;85.40
18337;DHT22;9294;51.106;7.028;2023-04-03T08:06:32;19.00;85.40
18337;DHT22;9294;51.106;7.028;2023-04-03T08:09:02;19.00;85.30
18337;DHT22;9294;51.106;7.028;2023-04-03T08:11:30;19.10;85.20
18337;DHT22;9294;51.106;7.028;2023-04-03T08:13:56;19.10;85.10
18337;DHT22;9294;51.106;7.028;2023-04-03T08:16:24;19.10;84.90
18337;DHT22;9294;51.106;7.028;2023-04-03T08:18:52;19.20;85.00
18337;DHT22;9294;51.106;7.028;2023-04-03T08:21:19;19.20;84.80
18337;DHT22;9294;51.106;7.028;2023-04-03T08:23:48;19.20;83.80
18337;DHT22;9294;51.106;7.028;2023-04-03T08:26:18;19.20;84.70
18337;DHT22;9294;51.106;7.028;2023-04-03T08:28:46;19.20;84.60
18337;DHT22;9294;51.106;7.028;2023-04-03T08:31:14;19.20;83.60
18337;DHT22;9294;51.106;7.028;2023-04-03T08:33:42;19.10;83.60
18337;DHT22;9294;51.106;7.028;2023-04-03T08:36:17;19.20;84.50
18337;DHT22;9294;51.106;7.028;2023-04-03T08:38:45;19.20;84.30
18337;DHT22;9294;51.106;7.028;2023-04-03T08:41:15;19.20;84.70
18337;DHT22;9294;51.106;7.028;2023-04-03T08:43:54;19.10;83.70
18337;DHT22;9294;51.106;7.028;2023-04-03T08:46:23;19.20;84.50
18337;DHT22;9294;51.106;7.028;2023-04-03T08:48:53;19.20;84.60
18337;DHT22;9294;51.106;7.028;2023-04-03T08:51:22;19.20;85.30
18337;DHT22;9294;51.106;7.028;2023-04-03T08:53:55;19.10;84.40
18337;DHT22;9294;51.106;7.028;2023-04-03T08:56:24;19.20;84.60
18337;DHT22;9294;51.106;7.028;2023-04-03T08:58:56;19.20;84.40
18337;DHT22;9294;51.106;7.028;2023-04-03T09:01:26;19.20;84.30
18337;DHT22;9294;51.106;7.028;2023-04-03T09:03:54;19.20;84.30
18337;DHT22;9294;51.106;7.028;2023-04-03T09:06:22;19.20;84.20
18337;DHT22;9294;51.106;7.028;2023-04-03T09:08:53;19.20;84.20
18337;DHT22;9294;51.106;7.028;2023-04-03T09:11:25;19.20;84.30
18337;DHT22;9294;51.106;7.028;2023-04-03T09:13:59;19.20;84.30
18337;DHT22;9294;51.106;7.028;2023-04-03T09:16:36;19.20;83.50
18337;DHT22;9294;51.106;7.028;2023-04-03T09:19:13;19.20;83.30
18337;DHT22;9294;51.106;7.028;2023-04-03T09:21:42;19.20;84.10
18337;DHT22;9294;51.106;7.028;2023-04-03T09:24:10;19.20;84.10
18337;DHT22;9294;51.106;7.028;2023-04-03T09:26:42;21.40;86.40
18337;DHT22;9294;51.106;7.028;2023-04-03T09:29:16;19.20;84.00
18337;DHT22;9294;51.106;7.028;2023-04-03T09:31:44;19.20;84.10
18337;DHT22;9294;51.106;7.028;2023-04-03T09:34:17;19.20;83.90
18337;DHT22;9294;51.106;7.028;2023-04-03T09:36:48;19.20;84.00
18337;DHT22;9294;51.106;7.028;2023-04-03T09:39:17;19.20;83.90
18337;DHT22;9294;51.106;7.028;2023-04-03T09:41:57;19.20;83.90
18337;DHT22;9294;51.106;7.028;2023-04-03T09:44:29;19.20;83.20
18337;DHT22;9294;51.106;7.028;2023-04-03T09:46:56;19.30;83.80
18337;DHT22;9294;51.106;7.028;2023-04-03T09:49:22;19.30;83.80
18337;DHT22;9294;51.106;7.028;2023-04-03T09:51:49;19.30;83.90
18337;DHT22;9294;51.106;7.028;2023-04-03T09:54:32;19.30;84.20
18337;DHT22;9294;51.106;7.028;2023-04-03T09:57:06;19.30;84.20
18337;DHT22;9294;51.106;7.028;2023-04-03T09:59:34;19.30;82.50
18337;DHT22;9294;51.106;7.028;2023-04-03T10:02:04;19.30;83.40
18337;DHT22;9294;51.106;7.028;2023-04-03T10:04:41;19.30;83.40
18337;DHT22;9294;51.106;7.028;2023-04-03T10:07:35;19.30;83.90
18337;DHT22;9294;51.106;7.028;2023-04-03T10:10:16;19.30;83.00
18337;DHT22;9294;51.106;7.028;2023-04-03T10:12:43;19.30;83.40
18337;DHT22;9294;51.106;7.028;2023-04-03T10:15:15;19.30;83.70
18337;DHT22;9294;51.106;7.028;2023-04-03T10:17:50;19.20;83.70
18337;DHT22;9294;51.106;7.028;2023-04-03T10:20:27;19.30;83.70
18337;DHT22;9294;51.106;7.028;2023-04-03T10:23:06;19.30;83.90
18337;DHT22;9294;51.106;7.028;2023-04-03T10:25:42;19.40;84.10
18337;DHT22;9294;51.106;7.028;2023-04-03T10:28:12;19.40;84.10
18337;DHT22;9294;51.106;7.028;2023-04-03T10:30:48;19.40;84.10
18337;DHT22;9294;51.106;7.028;2023-04-03T10:33:23;19.40;83.90
18337;DHT22;9294;51.106;7.028;2023-04-03T10:36:07;19.50;83.80
18337;DHT22;9294;51.106;7.028;2023-04-03T10:38:46;19.50;83.30
18337;DHT22;9294;51.106;7.028;2023-04-03T10:41:22;19.60;83.40
18337;DHT22;9294;51.106;7.028;2023-04-03T10:43:59;19.60;83.30
18337;DHT22;9294;51.106;7.028;2023-04-03T10:46:35;19.60;82.30
18337;DHT22;9294;51.106;7.028;2023-04-03T10:49:20;19.60;83.10
18337;DHT22;9294;51.106;7.028;2023-04-03T10:51:54;19.60;82.70
18337;DHT22;9294;51.106;7.028;2023-04-03T10:54:26;19.70;82.70
18337;DHT22;9294;51.106;7.028;2023-04-03T10:57:00;19.70;82.30
18337;DHT22;9294;51.106;7.028;2023-04-03T10:59:31;19.70;81.60
18337;DHT22;9294;51.106;7.028;2023-04-03T11:02:04;19.70;82.00
18337;DHT22;9294;51.106;7.028;2023-04-03T11:04:36;19.70;82.00
18337;DHT22;9294;51.106;7.028;2023-04-03T11:07:09;19.70;82.10
18337;DHT22;9294;51.106;7.028;2023-04-03T11:09:41;19.80;82.10
18337;DHT22;9294;51.106;7.028;2023-04-03T11:12:13;19.70;81.60
18337;DHT22;9294;51.106;7.028;2023-04-03T11:14:46;19.70;82.40
18337;DHT22;9294;51.106;7.028;2023-04-03T11:17:28;19.70;82.60
18337;DHT22;9294;51.106;7.028;2023-04-03T11:20:01;19.70;81.20
18337;DHT22;9294;51.106;7.028;2023-04-03T11:22:33;19.50;81.20
18337;DHT22;9294;51.106;7.028;2023-04-03T11:25:06;20.50;83.20
18337;DHT22;9294;51.106;7.028;2023-04-03T11:27:41;19.60;82.30
18337;DHT22;9294;51.106;7.028;2023-04-03T11:30:17;19.70;81.70
18337;DHT22;9294;51.106;7.028;2023-04-03T11:33:07;19.70;81.90
18337;DHT22;9294;51.106;7.028;2023-04-03T11:35:39;19.70;81.70
18337;DHT22;9294;51.106;7.028;2023-04-03T11:38:17;19.70;81.60
18337;DHT22;9294;51.106;7.028;2023-04-03T11:40:47;19.60;81.70
18337;DHT22;9294;51.106;7.028;2023-04-03T11:43:25;19.60;81.70
18337;DHT22;9294;51.106;7.028;2023-04-03T11:45:56;19.70;81.70
18337;DHT22;9294;51.106;7.028;2023-04-03T11:48:59;19.70;81.60
18337;DHT22;9294;51.106;7.028;2023-04-03T11:51:50;19.80;80.40
18337;DHT22;9294;51.106;7.028;2023-04-03T11:54:47;19.70;80.30
18337;DHT22;9294;51.106;7.028;2023-04-03T11:57:49;19.80;81.30
18337;DHT22;9294;51.106;7.028;2023-04-03T12:00:55;19.80;80.70
18337;DHT22;9294;51.106;7.028;2023-04-03T12:12:38;19.70;80.30
18337;DHT22;9294;51.106;7.028;2023-04-03T12:15:41;19.80;80.30
18337;DHT22;9294;51.106;7.028;2023-04-03T12:21:17;19.80;80.80
18337;DHT22;9294;51.106;7.028;2023-04-03T12:24:00;19.70;80.30
18337;DHT22;9294;51.106;7.028;2023-04-03T12:26:32;19.80;81.00
18337;DHT22;9294;51.106;7.028;2023-04-03T12:29:02;19.70;81.10
18337;DHT22;9294;51.106;7.028;2023-04-03T12:31:40;19.70;80.20
18337;DHT22;9294;51.106;7.028;2023-04-03T12:34:21;19.70;81.10
18337;DHT22;9294;51.106;7.028;2023-04-03T12:36:59;19.70;81.40
18337;DHT22;9294;51.106;7.028;2023-04-03T12:39:54;19.60;78.50
18337;DHT22;9294;51.106;7.028;2023-04-03T12:42:35;19.70;79.70
18337;DHT22;9294;51.106;7.028;2023-04-03T12:45:14;19.60;79.30
18337;DHT22;9294;51.106;7.028;2023-04-03T12:47:43;19.70;79.30
18337;DHT22;9294;51.106;7.028;2023-04-03T12:50:18;19.60;80.30
18337;DHT22;9294;51.106;7.028;2023-04-03T12:52:51;19.70;80.10
18337;DHT22;9294;51.106;7.028;2023-04-03T12:55:20;19.70;79.30
18337;DHT22;9294;51.106;7.028;2023-04-03T12:57:48;19.70;80.20
18337;DHT22;9294;51.106;7.028;2023-04-03T13:00:28;19.70;80.30
18337;DHT22;9294;51.106;7.028;2023-04-03T13:02:56;22.20;82.80
18337;DHT22;9294;51.106;7.028;2023-04-03T13:05:23;19.80;80.50
18337;DHT22;9294;51.106;7.028;2023-04-03T13:07:53;18.20;78.80
18337;DHT22;9294;51.106;7.028;2023-04-03T13:10:21;19.80;80.50
18337;DHT22;9294;51.106;7.028;2023-04-03T13:12:51;19.80;80.50
18337;DHT22;9294;51.106;7.028;2023-04-03T13:15:20;19.80;80.80
18337;DHT22;9294;51.106;7.028;2023-04-03T13:17:48;19.80;80.90
18337;DHT22;9294;51.106;7.028;2023-04-03T13:20:21;20.80;82.60
18337;DHT22;9294;51.106;7.028;2023-04-03T13:22:51;19.80;80.80
18337;DHT22;9294;51.106;7.028;2023-04-03T13:25:20;19.80;81.00
18337;DHT22;9294;51.106;7.028;2023-04-03T13:27:47;19.90;81.00
18337;DHT22;9294;51.106;7.028;2023-04-03T13:30:26;19.90;80.90
18337;DHT22;9294;51.106;7.028;2023-04-03T13:32:54;19.90;80.90
18337;DHT22;9294;51.106;7.028;2023-04-03T13:35:34;19.90;81.20
18337;DHT22;9294;51.106;7.028;2023-04-03T13:38:04;19.80;81.10
18337;DHT22;9294;51.106;7.028;2023-04-03T13:40:32;19.80;81.10
18337;DHT22;9294;51.106;7.028;2023-04-03T13:43:04;21.20;82.30
18337;DHT22;9294;51.106;7.028;2023-04-03T13:45:33;19.90;81.00
18337;DHT22;9294;51.106;7.028;2023-04-03T13:48:16;19.90;81.10
18337;DHT22;9294;51.106;7.028;2023-04-03T13:50:56;19.90;81.20
18337;DHT22;9294;51.106;7.028;2023-04-03T13:53:24;19.90;81.40
18337;DHT22;9294;51.106;7.028;2023-04-03T13:55:58;19.90;81.60
18337;DHT22;9294;51.106;7.028;2023-04-03T13:58:27;19.90;81.70
18337;DHT22;9294;51.106;7.028;2023-04-03T14:00:59;19.90;81.90
18337;DHT22;9294;51.106;7.028;2023-04-03T14:03:29;19.90;82.00
18337;DHT22;9294;51.106;7.028;2023-04-03T14:05:56;19.90;82.20
18337;DHT22;9294;51.106;7.028;2023-04-03T14:08:23;19.90;82.10
18337;DHT22;9294;51.106;7.028;2023-04-03T14:10:50;19.90;82.10
18337;DHT22;9294;51.106;7.028;2023-04-03T14:13:19;19.90;82.40
18337;DHT22;9294;51.106;7.028;2023-04-03T14:15:47;19.80;82.50
18337;DHT22;9294;51.106;7.028;2023-04-03T14:18:18;19.80;82.50
18337;DHT22;9294;51.106;7.028;2023-04-03T14:20:47;19.90;82.50
18337;DHT22;9294;51.106;7.028;2023-04-03T14:23:14;19.80;82.50
18337;DHT22;9294;51.106;7.028;2023-04-03T14:25:41;19.90;82.50
18337;DHT22;9294;51.106;7.028;2023-04-03T14:28:16;19.90;82.60
18337;DHT22;9294;51.106;7.028;2023-04-03T14:30:44;19.90;82.90
18337;DHT22;9294;51.106;7.028;2023-04-03T14:33:14;19.90;82.80
18337;DHT22;9294;51.106;7.028;2023-04-03T14:35:43;19.90;82.90
18337;DHT22;9294;51.106;7.028;2023-04-03T14:38:22;19.90;83.00
18337;DHT22;9294;51.106;7.028;2023-04-03T14:40:49;20.00;83.20
18337;DHT22;9294;51.106;7.028;2023-04-03T14:43:16;20.00;83.30
18337;DHT22;9294;51.106;7.028;2023-04-03T14:45:43;20.00;83.30
18337;DHT22;9294;51.106;7.028;2023-04-03T14:48:15;20.00;83.30
18337;DHT22;9294;51.106;7.028;2023-04-03T14:50:45;20.10;83.60
18337;DHT22;9294;51.106;7.028;2023-04-03T14:53:13;20.10;83.60
18337;DHT22;9294;51.106;7.028;2023-04-03T14:55:42;20.10;83.70
18337;DHT22;9294;51.106;7.028;2023-04-03T14:58:13;20.10;83.70
18337;DHT22;9294;51.106;7.028;2023-04-03T15:00:40;20.10;83.90
18337;DHT22;9294;51.106;7.028;2023-04-03T15:03:12;20.10;83.90
18337;DHT22;9294;51.106;7.028;2023-04-03T15:05:39;20.10;83.90
18337;DHT22;9294;51.106;7.028;2023-04-03T15:08:19;20.00;83.10
18337;DHT22;9294;51.106;7.028;2023-04-03T15:10:47;20.10;83.90
18337;DHT22;9294;51.106;7.028;2023-04-03T15:13:15;20.10;84.10
18337;DHT22;9294;51.106;7.028;2023-04-03T15:15:42;20.10;84.40
18337;DHT22;9294;51.106;7.028;2023-04-03T15:18:15;20.10;84.50
18337;DHT22;9294;51.106;7.028;2023-04-03T15:20:43;20.10;84.20
18337;DHT22;9294;51.106;7.028;2023-04-03T15:23:13;20.10;83.90
18337;DHT22;9294;51.106;7.028;2023-04-03T15:25:41;20.10;82.50
18337;DHT22;9294;51.106;7.028;2023-04-03T15:28:09;20.20;82.90
18337;DHT22;9294;51.106;7.028;2023-04-03T15:30:38;20.30;80.70
18337;DHT22;9294;51.106;7.028;2023-04-03T15:33:06;20.30;81.60
18337;DHT22;9294;51.106;7.028;2023-04-03T15:35:33;20.30;80.80
18337;DHT22;9294;51.106;7.028;2023-04-03T15:38:00;20.40;80.30
18337;DHT22;9294;51.106;7.028;2023-04-03T15:40:28;20.50;80.10
18337;DHT22;9294;51.106;7.028;2023-04-03T15:42:55;20.50;79.60
18337;DHT22;9294;51.106;7.028;2023-04-03T15:45:22;20.50;79.20
18337;DHT22;9294;51.106;7.028;2023-04-03T15:47:49;20.50;78.90
18337;DHT22;9294;51.106;7.028;2023-04-03T15:50:16;20.60;79.10
18337;DHT22;9294;51.106;7.028;2023-04-03T15:52:43;20.60;79.00
18337;DHT22;9294;51.106;7.028;2023-04-03T15:55:10;20.60;78.10
18337;DHT22;9294;51.106;7.028;2023-04-03T15:57:38;20.60;78.70
18337;DHT22;9294;51.106;7.028;2023-04-03T16:00:06;20.60;78.90
18337;DHT22;9294;51.106;7.028;2023-04-03T16:02:33;20.60;78.30
18337;DHT22;9294;51.106;7.028;2023-04-03T16:05:01;20.60;78.40
18337;DHT22;9294;51.106;7.028;2023-04-03T16:07:28;20.60;78.40
18337;DHT22;9294;51.106;7.028;2023-04-03T16:09:54;20.40;78.30
18337;DHT22;9294;51.106;7.028;2023-04-03T16:12:21;21.50;80.00
18337;DHT22;9294;51.106;7.028;2023-04-03T16:14:49;20.50;78.30
18337;DHT22;9294;51.106;7.028;2023-04-03T16:17:17;20.50;78.80
18337;DHT22;9294;51.106;7.028;2023-04-03T16:19:43;20.50;79.00
18337;DHT22;9294;51.106;7.028;2023-04-03T16:22:10;20.50;79.00
18337;DHT22;9294;51.106;7.028;2023-04-03T16:24:37;20.50;80.30
18337;DHT22;9294;51.106;7.028;2023-04-03T16:27:04;20.50;79.10
18337;DHT22;9294;51.106;7.028;2023-04-03T16:29:31;20.50;79.20